Time;durP1;ratioP1;P1;durP2;ratioP2;P2;SDS_P1;SDS_P2;PMS_P1;PMS_P2;Temp;Humidity;BMP_temperature;BMP_pressure;BME280_temperature;BME280_humidity;BME280_pressure;Samples;Min_cycle;Max_cycle;Signal;HPM_P1;HPM_P2
2023/08/22 00:00:52;;;;;;;8.13;3.67;;;21.40;99.90;;;;;;5012421;28;20223;-65
2023/08/22 00:03:17;;;;;;;6.70;4.00;;;21.30;99.90;;;;;;5012294;28;20183;-65
2023/08/22 00:05:43;;;;;;;8.57;5.30;;;21.30;99.90;;;;;;5012723;28;20757;-65
2023/08/22 00:08:09;;;;;;;6.50;4.00;;;21.40;99.90;;;;;;5012360;28;20198;-65
2023/08/22 00:10:34;;;;;;;9.90;4.93;;;21.40;99.90;;;;;;5012919;28;20226;-65
2023/08/22 00:13:01;;;;;;;9.00;4.90;;;21.40;99.90;;;;;;5011762;28;20183;-65
2023/08/22 00:15:27;;;;;;;7.83;3.63;;;21.40;99.90;;;;;;5011781;28;20190;-65
2023/08/22 00:17:52;;;;;;;9.13;4.50;;;21.30;99.90;;;;;;5011544;28;20418;-65
2023/08/22 00:20:18;;;;;;;16.60;4.70;;;21.30;99.90;;;;;;5012548;28;20460;-66
2023/08/22 00:22:44;;;;;;;9.20;4.20;;;21.30;99.90;;;;;;5012637;28;20194;-65
2023/08/22 00:25:11;;;;;;;12.83;4.60;;;21.30;99.90;;;;;;5012391;28;20783;-65
2023/08/22 00:27:37;;;;;;;16.70;4.20;;;21.30;99.90;;;;;;5012752;28;20277;-65
2023/08/22 00:30:04;;;;;;;11.43;4.23;;;21.20;99.90;;;;;;5012026;28;20481;-65
2023/08/22 00:32:31;;;;;;;9.30;4.50;;;21.20;99.90;;;;;;5012231;28;20454;-65
2023/08/22 00:34:56;;;;;;;11.13;4.80;;;21.20;99.90;;;;;;5004692;28;20468;-65
2023/08/22 00:37:22;;;;;;;10.27;4.43;;;21.10;99.90;;;;;;5012799;28;20922;-65
2023/08/22 00:39:48;;;;;;;8.00;3.83;;;21.00;99.90;;;;;;5012488;28;20182;-65
2023/08/22 00:42:13;;;;;;;7.63;4.43;;;21.00;99.90;;;;;;5010312;28;20690;-65
2023/08/22 00:44:39;;;;;;;11.93;4.30;;;21.00;99.90;;;;;;5011265;28;20194;-65
2023/08/22 00:47:06;;;;;;;13.67;4.90;;;21.00;99.90;;;;;;5011625;28;20289;-65
2023/08/22 00:49:32;;;;;;;8.13;4.63;;;21.00;99.90;;;;;;5011945;28;20726;-65
2023/08/22 00:51:59;;;;;;;5.73;3.53;;;21.00;99.90;;;;;;5011887;28;20775;-65
2023/08/22 00:54:27;;;;;;;14.60;4.90;;;21.00;99.90;;;;;;5011708;28;20427;-65
2023/08/22 00:56:53;;;;;;;9.73;4.33;;;20.90;99.90;;;;;;5011402;28;20452;-65
2023/08/22 00:59:19;;;;;;;7.07;3.67;;;20.90;99.90;;;;;;5010661;28;20430;-65
2023/08/22 01:01:46;;;;;;;8.87;4.30;;;20.90;99.90;;;;;;5011149;28;20430;-65
2023/08/22 01:04:11;;;;;;;9.57;4.50;;;20.90;99.90;;;;;;5011383;28;20522;-65
2023/08/22 01:06:50;;;;;;;9.73;4.10;;;20.90;99.90;;;;;;5011383;28;20552;-65
2023/08/22 01:09:23;;;;;;;10.53;5.20;;;20.90;99.90;;;;;;5011349;28;20640;-65
2023/08/22 01:11:51;;;;;;;8.93;4.03;;;20.80;99.90;;;;;;5010910;28;20735;-65
2023/08/22 01:14:22;;;;;;;6.90;4.10;;;20.80;99.90;;;;;;5010735;28;20557;-65
2023/08/22 01:16:48;;;;;;;8.10;4.80;;;20.70;99.90;;;;;;5011495;28;20492;-65
2023/08/22 01:19:18;;;;;;;5.97;3.37;;;20.70;99.90;;;;;;5011587;28;20926;-65
2023/08/22 01:21:51;;;;;;;7.43;4.00;;;20.80;99.90;;;;;;5011587;28;20267;-65
2023/08/22 01:24:17;;;;;;;12.00;3.90;;;20.70;99.90;;;;;;5010743;28;20421;-65
2023/08/22 01:26:47;;;;;;;10.20;5.10;;;20.70;99.90;;;;;;5010965;28;20531;-65
2023/08/22 01:29:26;;;;;;;6.77;3.47;;;20.60;99.90;;;;;;5010481;28;20655;-65
2023/08/22 01:31:52;;;;;;;5.53;3.73;;;20.60;99.90;;;;;;5011184;28;20945;-65
2023/08/22 01:34:22;;;;;;;7.00;4.33;;;20.60;99.90;;;;;;5010840;28;20446;-65
2023/08/22 01:36:50;;;;;;;7.10;4.33;;;20.60;99.90;;;;;;5010741;28;20183;-65
2023/08/22 01:39:18;;;;;;;7.00;4.40;;;20.50;99.90;;;;;;5011216;28;20426;-65
2023/08/22 01:41:46;;;;;;;9.27;3.40;;;20.50;99.90;;;;;;5010876;28;20426;-65
2023/08/22 01:44:12;;;;;;;6.80;4.40;;;20.50;99.90;;;;;;5009840;28;20414;-65
2023/08/22 01:46:38;;;;;;;8.67;4.47;;;20.50;99.90;;;;;;5004727;28;20466;-65
2023/08/22 01:49:03;;;;;;;6.73;4.43;;;20.50;99.90;;;;;;5009674;28;20437;-65
2023/08/22 01:51:29;;;;;;;14.10;4.50;;;20.50;99.90;;;;;;5007962;28;20187;-65
2023/08/22 01:53:55;;;;;;;6.13;3.83;;;20.40;99.90;;;;;;5010038;28;20183;-65
2023/08/22 01:56:20;;;;;;;14.10;4.40;;;20.40;99.90;;;;;;5010497;28;20210;-65
2023/08/22 01:58:49;;;;;;;9.43;3.73;;;20.50;99.90;;;;;;5010489;28;20229;-65
2023/08/22 02:01:15;;;;;;;8.53;3.87;;;20.40;99.90;;;;;;5010815;28;20195;-65
2023/08/22 02:03:42;;;;;;;9.27;5.20;;;20.30;99.90;;;;;;5010206;28;20475;-65
2023/08/22 02:06:08;;;;;;;8.27;3.93;;;20.30;99.90;;;;;;5010607;28;20418;-65
2023/08/22 02:08:33;;;;;;;6.20;3.63;;;20.30;99.90;;;;;;5010166;28;20479;-65
2023/08/22 02:10:59;;;;;;;6.70;3.50;;;20.30;99.90;;;;;;5010329;28;20886;-65
2023/08/22 02:13:25;;;;;;;6.60;3.93;;;20.30;99.90;;;;;;5009635;28;20316;-65
2023/08/22 02:15:50;;;;;;;13.40;4.80;;;20.30;99.90;;;;;;5010328;28;20272;-65
2023/08/22 02:18:16;;;;;;;16.07;5.07;;;20.30;99.90;;;;;;5010122;28;20197;-65
2023/08/22 02:20:42;;;;;;;8.53;3.70;;;20.30;99.90;;;;;;5010316;28;20190;-65
2023/08/22 02:23:09;;;;;;;6.53;3.93;;;20.30;99.90;;;;;;5009978;28;20210;-65
2023/08/22 02:25:35;;;;;;;9.23;4.57;;;20.30;99.90;;;;;;5010358;28;20179;-65
2023/08/22 02:28:01;;;;;;;8.10;3.70;;;20.30;99.90;;;;;;5009512;28;20496;-65
2023/08/22 02:30:27;;;;;;;7.07;4.23;;;20.20;99.90;;;;;;5009227;28;20454;-65
2023/08/22 02:32:53;;;;;;;8.97;3.90;;;20.20;99.90;;;;;;5009986;28;20446;-65
2023/08/22 02:35:19;;;;;;;8.00;3.87;;;20.20;99.90;;;;;;5009769;28;20179;-65
2023/08/22 02:37:45;;;;;;;8.77;4.17;;;20.20;99.90;;;;;;5010101;28;20620;-65
2023/08/22 02:40:11;;;;;;;6.60;3.90;;;20.20;99.90;;;;;;5009959;28;20529;-65
2023/08/22 02:42:38;;;;;;;7.43;3.60;;;20.20;99.90;;;;;;5009292;28;20457;-65
2023/08/22 02:45:04;;;;;;;12.97;4.80;;;20.20;99.90;;;;;;5009797;28;20513;-65
2023/08/22 02:47:31;;;;;;;7.83;4.07;;;20.10;99.90;;;;;;5009662;28;20458;-65
2023/08/22 02:49:57;;;;;;;7.90;3.93;;;20.10;99.90;;;;;;5010101;28;20418;-65
2023/08/22 02:52:23;;;;;;;7.50;4.43;;;20.00;99.90;;;;;;5010288;28;20444;-65
2023/08/22 02:54:49;;;;;;;8.40;3.73;;;20.00;99.90;;;;;;5010075;28;20946;-65
2023/08/22 02:57:14;;;;;;;9.40;3.77;;;20.00;99.90;;;;;;5009399;28;20248;-65
2023/08/22 02:59:40;;;;;;;5.50;3.43;;;20.00;99.90;;;;;;5009900;28;20195;-65
2023/08/22 03:02:06;;;;;;;9.33;4.00;;;19.90;99.90;;;;;;5009771;28;20186;-65
2023/08/22 03:04:33;;;;;;;7.10;4.00;;;19.90;99.90;;;;;;5009834;28;20248;-65
2023/08/22 03:06:59;;;;;;;15.77;4.80;;;19.90;99.90;;;;;;5009509;28;20461;-65
2023/08/22 03:09:26;;;;;;;7.70;4.30;;;19.90;99.90;;;;;;5009812;28;20693;-65
2023/08/22 03:11:51;;;;;;;6.90;4.43;;;19.90;99.90;;;;;;5009437;28;20422;-65
2023/08/22 03:14:17;;;;;;;7.47;4.90;;;19.90;99.90;;;;;;5008967;28;20526;-65
2023/08/22 03:16:43;;;;;;;7.90;3.30;;;19.80;99.90;;;;;;5009403;28;20221;-65
2023/08/22 03:19:08;;;;;;;7.57;4.73;;;19.80;99.90;;;;;;5009702;28;20257;-65
2023/08/22 03:21:34;;;;;;;7.13;4.07;;;19.80;99.90;;;;;;5009907;28;20187;-65
2023/08/22 03:23:59;;;;;;;8.47;4.50;;;19.70;99.90;;;;;;5009372;28;20281;-65
2023/08/22 03:26:25;;;;;;;7.20;4.53;;;19.70;99.90;;;;;;5009488;28;20190;-65
2023/08/22 03:28:51;;;;;;;6.10;3.57;;;19.70;99.90;;;;;;5009575;28;20187;-65
2023/08/22 03:31:17;;;;;;;6.00;3.67;;;19.70;99.90;;;;;;5009284;28;20965;-65
2023/08/22 03:33:42;;;;;;;8.10;4.03;;;19.70;99.90;;;;;;5009519;28;20254;-65
2023/08/22 03:36:08;;;;;;;7.90;4.23;;;19.70;99.90;;;;;;5009680;28;20210;-65
2023/08/22 03:38:34;;;;;;;11.00;4.63;;;19.70;99.90;;;;;;5010422;28;20188;-65
2023/08/22 03:40:59;;;;;;;10.07;4.67;;;19.70;99.90;;;;;;5010206;28;20270;-65
2023/08/22 03:43:26;;;;;;;7.40;4.30;;;19.60;99.90;;;;;;5008994;28;20230;-65
2023/08/22 03:45:51;;;;;;;8.80;4.43;;;19.60;99.90;;;;;;5007416;28;20194;-65
2023/08/22 03:48:17;;;;;;;9.80;4.57;;;19.60;99.90;;;;;;5002557;28;20490;-65
2023/08/22 03:50:43;;;;;;;9.80;4.37;;;19.60;99.90;;;;;;5007113;28;20184;-65
2023/08/22 03:53:10;;;;;;;6.13;3.93;;;19.60;99.90;;;;;;5010972;28;20180;-65
2023/08/22 03:55:35;;;;;;;7.50;3.77;;;19.60;99.90;;;;;;5012814;28;20187;-65
2023/08/22 03:58:02;;;;;;;8.03;3.57;;;19.50;99.90;;;;;;5012550;28;20430;-65
2023/08/22 04:00:28;;;;;;;8.73;4.27;;;19.50;99.90;;;;;;5012193;28;20252;-65
2023/08/22 04:02:57;;;;;;;6.30;3.83;;;19.50;99.90;;;;;;5012734;28;21045;-65
2023/08/22 04:05:23;;;;;;;6.90;3.27;;;19.50;99.90;;;;;;5012002;28;20424;-65
2023/08/22 04:07:50;;;;;;;9.30;4.10;;;19.50;99.90;;;;;;5012673;28;20560;-65
2023/08/22 04:10:16;;;;;;;6.90;3.70;;;19.50;99.90;;;;;;5013014;28;20191;-65
2023/08/22 04:12:42;;;;;;;7.50;4.50;;;19.40;99.90;;;;;;5012234;28;20418;-65
2023/08/22 04:15:09;;;;;;;9.13;4.13;;;19.40;99.90;;;;;;5012066;28;20540;-65
2023/08/22 04:17:35;;;;;;;7.73;4.40;;;19.30;99.90;;;;;;5012195;28;20191;-65
2023/08/22 04:20:03;;;;;;;8.47;4.00;;;19.30;99.90;;;;;;5012793;28;20419;-65
2023/08/22 04:22:30;;;;;;;8.27;3.73;;;19.30;99.90;;;;;;5012737;28;20422;-65
2023/08/22 04:24:56;;;;;;;7.07;3.87;;;19.30;99.90;;;;;;5012394;28;20417;-65
2023/08/22 04:27:22;;;;;;;9.33;3.90;;;19.30;99.90;;;;;;5012115;28;20965;-65
2023/08/22 04:29:48;;;;;;;7.97;3.90;;;19.20;99.90;;;;;;5012397;28;20422;-65
2023/08/22 04:32:13;;;;;;;25.27;4.67;;;19.20;99.90;;;;;;5012473;28;20579;-65
2023/08/22 04:34:39;;;;;;;8.27;4.43;;;19.20;99.90;;;;;;5011898;28;20187;-65
2023/08/22 04:37:04;;;;;;;6.03;3.53;;;19.20;99.90;;;;;;5012194;28;20521;-65
2023/08/22 04:39:30;;;;;;;9.80;4.13;;;19.20;99.90;;;;;;5012351;28;20597;-66
2023/08/22 04:41:56;;;;;;;5.10;3.23;;;19.20;99.90;;;;;;5012535;28;20237;-65
2023/08/22 04:44:21;;;;;;;11.00;3.80;;;19.20;99.90;;;;;;5011270;28;20274;-65
2023/08/22 04:46:47;;;;;;;10.50;3.90;;;19.20;99.90;;;;;;5011376;28;20290;-65
2023/08/22 04:49:13;;;;;;;8.80;4.20;;;19.20;99.90;;;;;;5011900;28;20175;-65
2023/08/22 04:51:38;;;;;;;6.37;3.90;;;19.20;99.90;;;;;;5012055;28;20716;-65
2023/08/22 04:54:04;;;;;;;5.60;2.90;;;19.20;99.90;;;;;;5011776;28;20547;-65
2023/08/22 04:56:29;;;;;;;5.93;3.50;;;19.20;99.90;;;;;;5012047;28;20375;-65
2023/08/22 04:58:55;;;;;;;12.90;4.00;;;19.20;99.90;;;;;;5011280;28;20210;-65
2023/08/22 05:01:21;;;;;;;8.80;4.37;;;19.20;99.90;;;;;;5011591;28;20668;-65
2023/08/22 05:03:47;;;;;;;7.10;3.87;;;19.20;99.90;;;;;;5010839;28;20253;-65
2023/08/22 05:06:12;;;;;;;8.00;3.63;;;19.20;99.90;;;;;;5011086;28;20226;-65
2023/08/22 05:08:38;;;;;;;5.90;3.20;;;19.30;99.90;;;;;;5011403;28;20234;-65
2023/08/22 05:11:04;;;;;;;8.17;4.00;;;19.30;99.90;;;;;;5011777;28;20179;-65
2023/08/22 05:13:29;;;;;;;6.10;3.03;;;19.30;99.90;;;;;;5010479;28;20258;-65
2023/08/22 05:15:55;;;;;;;7.60;3.67;;;19.30;99.90;;;;;;5011404;28;20263;-65
2023/08/22 05:18:21;;;;;;;10.20;4.20;;;19.30;99.90;;;;;;5011462;28;20706;-65
2023/08/22 05:20:51;;;;;;;5.37;3.30;;;19.40;99.90;;;;;;5011736;28;20676;-65
2023/08/22 05:23:16;;;;;;;8.87;3.87;;;19.50;99.90;;;;;;5010954;28;20191;-65
2023/08/22 05:25:42;;;;;;;6.27;3.60;;;19.50;99.90;;;;;;5011655;28;20418;-65
2023/08/22 05:28:08;;;;;;;7.80;4.27;;;19.60;99.90;;;;;;5010683;28;20256;-65
2023/08/22 05:30:36;;;;;;;13.73;5.10;;;19.50;99.90;;;;;;5011205;28;20264;-65
2023/08/22 05:33:02;;;;;;;8.20;4.20;;;19.60;99.90;;;;;;5010903;28;20237;-65
2023/08/22 05:35:28;;;;;;;7.20;3.50;;;19.60;99.90;;;;;;5011082;28;20418;-65
2023/08/22 05:37:54;;;;;;;6.93;4.20;;;19.70;99.90;;;;;;5011430;28;20436;-65
2023/08/22 05:40:19;;;;;;;6.27;3.40;;;19.70;99.90;;;;;;5011332;28;20662;-65
2023/08/22 05:42:45;;;;;;;6.10;3.50;;;19.70;99.90;;;;;;5010145;28;20222;-65
2023/08/22 05:45:10;;;;;;;5.27;3.07;;;19.80;99.90;;;;;;5010641;28;20187;-65
2023/08/22 05:47:36;;;;;;;7.93;3.53;;;19.80;99.90;;;;;;5010706;28;20202;-65
2023/08/22 05:50:03;;;;;;;4.80;3.07;;;19.90;99.90;;;;;;5010946;28;20171;-65
2023/08/22 05:52:30;;;;;;;8.00;3.67;;;20.00;99.90;;;;;;5011153;28;20666;-66
2023/08/22 05:54:56;;;;;;;7.90;3.97;;;20.10;99.90;;;;;;5010398;28;20430;-66
2023/08/22 05:57:22;;;;;;;8.10;3.37;;;20.10;99.90;;;;;;5010487;28;21074;-65
2023/08/22 05:59:49;;;;;;;5.10;2.83;;;20.20;99.90;;;;;;5010675;28;20199;-65
2023/08/22 06:02:15;;;;;;;5.40;3.10;;;20.20;99.90;;;;;;5010342;28;20723;-65
2023/08/22 06:04:40;;;;;;;8.00;3.37;;;20.30;99.90;;;;;;5010423;28;20429;-65
2023/08/22 06:07:06;;;;;;;5.10;3.30;;;20.30;99.90;;;;;;5011152;28;20237;-65
2023/08/22 06:09:31;;;;;;;7.27;3.90;;;20.40;99.90;;;;;;5010794;28;20612;-66
2023/08/22 06:11:57;;;;;;;10.70;3.40;;;20.50;99.90;;;;;;5010749;28;20190;-66
2023/08/22 06:14:23;;;;;;;5.80;3.40;;;20.50;99.90;;;;;;5009647;28;20284;-66
2023/08/22 06:16:48;;;;;;;4.50;2.77;;;20.60;99.90;;;;;;5009541;28;20179;-66
2023/08/22 06:19:14;;;;;;;9.30;3.17;;;20.70;99.90;;;;;;5010457;28;20218;-65
2023/08/22 06:21:40;;;;;;;8.47;3.87;;;20.80;99.90;;;;;;5010484;28;20544;-66
2023/08/22 06:24:06;;;;;;;6.00;3.27;;;20.90;99.90;;;;;;5006631;28;20620;-66
2023/08/22 06:26:31;;;;;;;5.70;3.10;;;21.00;99.90;;;;;;5010087;28;20194;-66
2023/08/22 06:28:58;;;;;;;7.23;2.87;;;21.10;99.90;;;;;;5009841;28;20428;-66
2023/08/22 06:31:24;;;;;;;3.63;2.00;;;21.20;99.90;;;;;;5005282;28;20202;-66
2023/08/22 06:33:49;;;;;;;6.57;2.80;;;21.30;99.90;;;;;;5009982;28;20428;-66
2023/08/22 06:36:15;;;;;;;4.90;2.57;;;21.50;99.90;;;;;;5010224;28;20947;-66
2023/08/22 06:38:40;;;;;;;6.60;3.10;;;21.60;99.90;;;;;;5010159;28;20674;-66
2023/08/22 06:41:07;;;;;;;10.70;3.53;;;21.80;99.90;;;;;;5010163;28;20241;-66
2023/08/22 06:43:33;;;;;;;8.60;2.23;;;22.00;99.90;;;;;;5009433;28;20566;-66
2023/08/22 06:45:59;;;;;;;6.23;2.50;;;22.30;99.90;;;;;;5008622;28;20434;-66
2023/08/22 06:48:26;;;;;;;4.80;2.47;;;22.50;99.90;;;;;;5010115;28;20468;-66
2023/08/22 06:50:52;;;;;;;5.03;2.50;;;22.70;99.90;;;;;;5010192;28;20190;-66
2023/08/22 06:53:19;;;;;;;8.20;2.30;;;23.00;99.90;;;;;;5009824;28;20421;-66
2023/08/22 06:55:48;;;;;;;6.80;3.17;;;23.20;99.90;;;;;;5010453;28;20478;-66
2023/08/22 06:58:14;;;;;;;5.93;2.30;;;23.40;99.90;;;;;;5010074;28;20559;-66
2023/08/22 07:00:40;;;;;;;6.33;2.67;;;23.50;99.90;;;;;;4991865;28;20461;-66
2023/08/22 07:03:05;;;;;;;15.07;2.80;;;23.60;99.90;;;;;;5010240;28;20197;-66
2023/08/22 07:05:33;;;;;;;8.17;2.00;;;23.80;99.90;;;;;;5009744;28;20191;-66
2023/08/22 07:07:58;;;;;;;5.50;2.10;;;24.20;99.90;;;;;;5009542;28;20226;-66
2023/08/22 07:10:24;;;;;;;9.10;2.70;;;24.40;99.90;;;;;;5009717;28;20867;-66
2023/08/22 07:12:50;;;;;;;7.60;2.20;;;24.80;99.90;;;;;;5009765;28;20181;-66
2023/08/22 07:15:15;;;;;;;6.27;2.40;;;25.10;99.90;;;;;;5009345;28;20240;-66
2023/08/22 07:17:41;;;;;;;7.70;2.13;;;25.60;99.90;;;;;;5009619;28;20182;-66
2023/08/22 07:20:07;;;;;;;8.00;2.20;;;26.20;99.90;;;;;;5009701;28;20193;-66
2023/08/22 07:22:33;;;;;;;5.63;2.40;;;26.60;99.90;;;;;;5009694;28;20624;-66
2023/08/22 07:24:59;;;;;;;10.23;2.37;;;27.20;99.90;;;;;;5009463;28;20191;-65
2023/08/22 07:27:24;;;;;;;4.20;2.13;;;27.30;99.90;;;;;;5011760;28;20544;-66
2023/08/22 07:29:50;;;;;;;4.80;2.60;;;27.70;99.90;;;;;;5013664;28;20186;-66
2023/08/22 07:32:18;;;;;;;3.00;1.73;;;28.20;99.90;;;;;;5013130;28;20183;-66
2023/08/22 07:34:45;;;;;;;5.40;1.80;;;29.10;99.00;;;;;;5013156;28;20178;-66
2023/08/22 07:37:10;;;;;;;7.10;3.03;;;29.50;98.20;;;;;;5013111;28;20683;-66
2023/08/22 07:39:36;;;;;;;4.05;1.90;;;30.00;97.30;;;;;;5013557;28;20210;-66
2023/08/22 07:42:02;;;;;;;2.80;1.42;;;30.00;96.40;;;;;;5013137;28;20285;-66
2023/08/22 07:44:28;;;;;;;5.82;2.10;;;30.60;95.70;;;;;;5013276;28;20213;-66
2023/08/22 07:46:54;;;;;;;4.95;2.42;;;31.00;95.20;;;;;;5010737;28;20234;-66
2023/08/22 07:49:19;;;;;;;4.25;2.05;;;31.00;94.80;;;;;;5008413;28;20203;-66
2023/08/22 07:51:45;;;;;;;5.90;2.55;;;31.40;95.00;;;;;;5015799;28;20564;-66
2023/08/22 07:54:11;;;;;;;3.10;1.88;;;31.70;93.40;;;;;;5014082;28;20181;-66
2023/08/22 07:56:37;;;;;;;5.80;2.85;;;31.60;93.40;;;;;;5013237;28;20183;-66
2023/08/22 07:59:02;;;;;;;3.00;1.75;;;31.50;93.10;;;;;;5030773;28;20717;-66
2023/08/22 08:01:28;;;;;;;4.28;2.10;;;31.50;93.10;;;;;;5032300;28;20197;-66
2023/08/22 08:03:55;;;;;;;4.20;2.03;;;31.50;93.20;;;;;;5032273;28;20544;-66
2023/08/22 08:06:20;;;;;;;4.28;2.15;;;31.60;93.40;;;;;;5032479;28;20640;-66
2023/08/22 08:08:46;;;;;;;2.55;1.45;;;31.60;92.90;;;;;;5017895;28;20212;-66
2023/08/22 08:11:12;;;;;;;4.78;2.25;;;32.30;91.10;;;;;;5024722;28;20220;-66
2023/08/22 08:13:38;;;;;;;4.22;1.85;;;32.30;91.20;;;;;;5017849;28;20178;-66
2023/08/22 08:16:04;;;;;;;3.05;1.95;;;31.90;91.80;;;;;;5029550;28;20249;-66
2023/08/22 08:18:29;;;;;;;3.92;1.85;;;31.70;92.10;;;;;;5020006;28;20182;-66
2023/08/22 08:20:55;;;;;;;4.43;2.00;;;32.40;91.20;;;;;;5032469;28;20440;-66
2023/08/22 08:23:21;;;;;;;8.07;1.33;;;32.70;90.10;;;;;;5031626;28;20601;-66
2023/08/22 08:25:46;;;;;;;7.05;2.22;;;33.20;87.70;;;;;;5032507;28;20585;-66
2023/08/22 08:28:12;;;;;;;2.80;1.40;;;33.00;88.00;;;;;;5031623;28;20726;-66
2023/08/22 08:30:37;;;;;;;7.80;1.88;;;32.90;88.00;;;;;;5020503;28;20187;-66
2023/08/22 08:33:04;;;;;;;4.22;2.55;;;33.20;87.10;;;;;;5030237;28;20178;-67
2023/08/22 08:35:29;;;;;;;2.90;1.65;;;33.20;86.80;;;;;;5015236;28;20174;-66
2023/08/22 08:37:57;;;;;;;2.85;1.83;;;33.20;86.20;;;;;;5013529;28;20187;-66
2023/08/22 08:40:22;;;;;;;2.80;2.05;;;33.00;85.80;;;;;;5024133;28;20178;-66
2023/08/22 08:42:48;;;;;;;2.88;1.58;;;33.40;85.00;;;;;;5031238;28;20201;-66
2023/08/22 08:45:16;;;;;;;2.70;1.55;;;33.60;85.00;;;;;;5015261;28;20277;-67
2023/08/22 08:47:42;;;;;;;3.28;1.88;;;33.70;83.80;;;;;;5014737;28;20673;-66
2023/08/22 08:50:09;;;;;;;9.20;2.30;;;33.50;84.00;;;;;;5018888;28;20269;-66
2023/08/22 08:52:35;;;;;;;3.60;2.42;;;33.70;83.50;;;;;;5028429;28;20174;-66
2023/08/22 08:55:04;;;;;;;3.53;1.77;;;34.00;83.80;;;;;;5008568;28;20191;-66
2023/08/22 08:57:30;;;;;;;10.95;2.22;;;34.70;81.90;;;;;;5021634;28;20185;-66
2023/08/22 08:59:56;;;;;;;18.10;3.00;;;34.40;83.00;;;;;;5016034;28;20289;-67
2023/08/22 09:02:21;;;;;;;12.10;2.40;;;33.20;85.20;;;;;;5013828;28;20195;-67
2023/08/22 09:04:49;;;;;;;3.25;1.90;;;33.30;87.10;;;;;;5014450;28;20241;-67
2023/08/22 09:07:16;;;;;;;7.05;2.42;;;34.10;82.90;;;;;;5021353;28;20449;-67
2023/08/22 09:09:41;;;;;;;5.20;2.20;;;33.80;84.70;;;;;;5015617;28;20183;-67
2023/08/22 09:12:09;;;;;;;3.38;2.03;;;33.90;85.10;;;;;;5029972;28;20189;-67
2023/08/22 09:14:40;;;;;;;5.80;2.20;;;33.00;86.80;;;;;;5018156;28;20225;-67
2023/08/22 09:17:06;;;;;;;4.97;2.45;;;33.50;85.40;;;;;;4999429;28;20194;-67
2023/08/22 09:19:33;;;;;;;5.95;2.40;;;33.70;84.50;;;;;;5021165;28;20644;-67
2023/08/22 09:22:00;;;;;;;4.45;3.13;;;33.70;85.70;;;;;;5029921;28;20631;-67
2023/08/22 09:24:27;;;;;;;4.20;2.75;;;33.50;87.00;;;;;;5030687;28;20256;-67
2023/08/22 09:26:52;;;;;;;4.95;3.08;;;33.20;86.40;;;;;;5031190;28;20544;-67
2023/08/22 09:29:29;;;;;;;6.78;3.05;;;33.50;84.40;;;;;;5016925;28;20698;-67
2023/08/22 09:32:06;;;;;;;5.13;2.42;;;33.40;85.20;;;;;;5019830;28;20208;-67
2023/08/22 09:34:33;;;;;;;8.50;2.75;;;32.90;86.40;;;;;;5024804;28;20190;-66
2023/08/22 09:36:59;;;;;;;3.70;2.28;;;33.50;84.10;;;;;;5021102;28;20198;-67
2023/08/22 09:39:25;;;;;;;5.65;2.72;;;33.10;85.40;;;;;;5015501;28;20718;-67
2023/08/22 09:41:54;;;;;;;3.78;2.20;;;33.50;83.90;;;;;;5021532;28;20186;-66
2023/08/22 09:44:24;;;;;;;4.97;2.72;;;34.00;82.70;;;;;;5030054;28;20187;-66
2023/08/22 09:46:51;;;;;;;6.05;2.67;;;33.90;83.20;;;;;;5012654;28;20178;-66
2023/08/22 09:49:17;;;;;;;5.65;2.88;;;34.00;83.10;;;;;;5016057;28;20250;-66
2023/08/22 09:51:47;;;;;;;3.15;2.00;;;33.80;82.50;;;;;;5021703;28;20189;-66
2023/08/22 09:54:16;;;;;;;4.15;2.63;;;33.50;84.30;;;;;;5030265;28;20627;-66
2023/08/22 09:56:42;;;;;;;4.03;2.80;;;34.00;84.30;;;;;;5019205;28;20186;-67
2023/08/22 09:59:10;;;;;;;3.80;2.00;;;33.80;82.00;;;;;;5030019;28;20534;-67
2023/08/22 10:01:38;;;;;;;10.38;3.00;;;33.50;84.60;;;;;;5023301;28;20266;-66
2023/08/22 10:04:08;;;;;;;4.72;2.75;;;32.70;85.70;;;;;;5011070;28;20178;-66
2023/08/22 10:06:36;;;;;;;5.05;2.95;;;32.80;87.30;;;;;;5010194;28;20179;-66
2023/08/22 10:09:07;;;;;;;5.55;3.35;;;32.80;87.40;;;;;;5015119;28;20359;-66
2023/08/22 10:11:55;;;;;;;4.28;2.40;;;32.00;87.00;;;;;;5010380;28;20306;-66
2023/08/22 10:14:41;;;;;;;3.90;2.08;;;32.00;88.80;;;;;;5005658;28;20274;-66
2023/08/22 10:17:13;;;;;;;4.38;2.67;;;32.20;87.30;;;;;;5010369;28;20183;-66
2023/08/22 10:19:44;;;;;;;8.55;2.90;;;32.00;89.40;;;;;;5008954;28;20185;-65
2023/08/22 10:22:14;;;;;;;3.50;2.13;;;32.00;87.80;;;;;;5011232;28;20178;-66
2023/08/22 10:24:40;;;;;;;5.57;2.40;;;32.10;90.00;;;;;;5010665;28;20631;-65
2023/08/22 10:27:07;;;;;;;5.90;2.85;;;31.80;90.20;;;;;;5006509;28;20218;-66
2023/08/22 10:29:37;;;;;;;4.70;2.78;;;31.70;88.40;;;;;;5014831;28;20320;-66
2023/08/22 10:32:03;;;;;;;4.25;2.28;;;31.80;88.50;;;;;;5025613;28;20576;-66
2023/08/22 10:34:34;;;;;;;10.48;2.47;;;31.60;89.30;;;;;;5010413;28;20178;-66
2023/08/22 10:37:04;;;;;;;4.65;2.65;;;31.50;89.20;;;;;;5019051;28;20219;-66
2023/08/22 10:39:40;;;;;;;5.05;2.55;;;31.40;90.10;;;;;;5017007;28;20182;-66
2023/08/22 10:42:17;;;;;;;4.95;2.20;;;31.50;90.00;;;;;;5016480;28;20185;-66
2023/08/22 10:44:47;;;;;;;9.02;3.13;;;31.50;89.10;;;;;;5026468;28;20186;-66
2023/08/22 10:47:18;;;;;;;5.47;2.28;;;31.30;89.50;;;;;;5007426;28;20224;-66
2023/08/22 10:49:47;;;;;;;3.17;2.25;;;31.40;88.60;;;;;;5013271;28;20182;-66
2023/08/22 10:52:13;;;;;;;4.35;2.50;;;31.70;89.30;;;;;;5029604;28;20879;-66
2023/08/22 10:54:57;;;;;;;5.10;3.13;;;31.40;89.20;;;;;;5029307;28;20193;-66
2023/08/22 10:57:24;;;;;;;3.65;2.30;;;31.20;89.10;;;;;;5019666;28;20193;-66
2023/08/22 10:59:59;;;;;;;6.22;2.90;;;31.20;90.20;;;;;;5003069;28;20201;-66
2023/08/22 11:02:28;;;;;;;4.68;2.75;;;31.30;90.30;;;;;;5010408;28;20213;-66
2023/08/22 11:04:57;;;;;;;5.07;2.45;;;31.30;90.00;;;;;;5021909;28;20313;-66
2023/08/22 11:07:25;;;;;;;4.18;2.33;;;31.60;87.60;;;;;;5022335;28;20306;-66
2023/08/22 11:09:51;;;;;;;5.43;2.65;;;31.80;89.10;;;;;;5015486;28;20178;-66
2023/08/22 11:12:21;;;;;;;5.70;2.35;;;31.80;90.20;;;;;;5017285;28;20596;-66
2023/08/22 11:14:50;;;;;;;11.60;2.58;;;31.50;89.50;;;;;;5013645;28;20219;-66
2023/08/22 11:17:17;;;;;;;8.55;2.85;;;31.70;88.40;;;;;;5010309;28;20587;-66
2023/08/22 11:19:43;;;;;;;6.47;3.10;;;31.80;88.50;;;;;;5013251;28;20222;-66
2023/08/22 11:22:10;;;;;;;5.10;2.25;;;32.10;86.90;;;;;;5013740;28;20270;-66
2023/08/22 11:24:36;;;;;;;3.75;1.95;;;32.30;87.60;;;;;;5012708;28;20186;-66
2023/08/22 11:27:05;;;;;;;4.47;2.47;;;32.60;87.50;;;;;;5012180;28;20214;-66
2023/08/22 11:29:43;;;;;;;6.88;2.45;;;32.80;83.40;;;;;;5015822;28;20187;-65
2023/08/22 11:32:38;;;;;;;10.07;2.40;;;32.60;85.80;;;;;;5015573;28;20179;-66
2023/08/22 11:35:06;;;;;;;5.07;1.98;;;32.60;84.90;;;;;;5012679;28;20333;-65
2023/08/22 11:37:37;;;;;;;4.50;2.58;;;31.90;86.20;;;;;;5013510;28;21245;-65
2023/08/22 11:40:04;;;;;;;3.55;2.50;;;31.70;88.00;;;;;;5006752;28;20199;-65
2023/08/22 11:42:32;;;;;;;5.20;2.70;;;31.80;88.70;;;;;;5012914;28;20643;-65
2023/08/22 11:44:59;;;;;;;9.10;2.72;;;31.60;88.90;;;;;;5015844;28;20198;-65
2023/08/22 11:47:54;;;;;;;5.20;2.25;;;31.40;90.60;;;;;;5014690;28;20226;-65
2023/08/22 11:50:23;;;;;;;8.63;3.47;;;31.20;89.10;;;;;;5016903;28;20181;-65
2023/08/22 11:52:52;;;;;;;5.78;2.47;;;31.20;89.30;;;;;;5001825;28;20186;-65
2023/08/22 11:55:26;;;;;;;4.80;2.78;;;31.20;89.60;;;;;;5010679;28;20284;-65
2023/08/22 11:58:05;;;;;;;6.38;2.85;;;31.10;89.60;;;;;;5025346;28;20531;-65
2023/08/22 12:00:32;;;;;;;6.80;2.20;;;31.10;89.40;;;;;;5032926;28;20644;-65
2023/08/22 12:02:59;;;;;;;3.28;2.17;;;31.30;89.50;;;;;;5018823;28;20229;-65
2023/08/22 12:05:44;;;;;;;5.90;2.70;;;31.20;89.20;;;;;;5032486;28;20288;-66
2023/08/22 12:08:12;;;;;;;3.20;1.85;;;31.20;89.90;;;;;;5018355;28;20285;-66
2023/08/22 12:10:39;;;;;;;3.75;2.63;;;31.70;88.00;;;;;;5016268;28;20211;-66
2023/08/22 12:13:05;;;;;;;6.00;2.35;;;31.80;89.00;;;;;;5015580;28;20174;-66
2023/08/22 12:15:31;;;;;;;5.85;2.42;;;32.10;85.10;;;;;;5020450;28;20182;-66
2023/08/22 12:17:58;;;;;;;4.50;3.25;;;32.00;88.70;;;;;;5016682;28;20178;-66
2023/08/22 12:20:24;;;;;;;5.63;2.10;;;32.00;87.60;;;;;;5032120;28;20264;-65
2023/08/22 12:22:49;;;;;;;3.25;1.95;;;31.70;88.10;;;;;;5032331;28;20265;-66
2023/08/22 12:25:15;;;;;;;8.38;2.85;;;31.40;87.50;;;;;;5031681;28;20212;-66
2023/08/22 12:27:40;;;;;;;5.53;2.15;;;31.40;90.00;;;;;;5010035;28;20211;-66
2023/08/22 12:30:07;;;;;;;7.68;2.63;;;31.80;89.80;;;;;;5014045;28;20182;-65
2023/08/22 12:32:33;;;;;;;9.40;2.20;;;32.20;90.10;;;;;;5017642;28;20488;-65
2023/08/22 12:34:59;;;;;;;4.15;2.58;;;32.60;88.80;;;;;;5009661;28;20276;-66
2023/08/22 12:37:25;;;;;;;3.60;2.47;;;32.60;86.50;;;;;;5014039;28;20646;-66
2023/08/22 12:39:50;;;;;;;5.15;2.95;;;32.30;89.80;;;;;;5013930;28;20607;-66
2023/08/22 12:42:17;;;;;;;3.72;1.83;;;32.20;88.70;;;;;;5014719;28;20182;-65
2023/08/22 12:44:43;;;;;;;3.65;1.90;;;32.00;85.10;;;;;;5001380;28;20210;-65